Etusivu
METAR-TAF:

METAR-TAF

Lentoasemat :

Basra, Irak

Leveyspiiri: 30-32-56N, Pituuspiiri: 47-39-45E, korkeus merenpinnasta: 1 m

Tämänhetkinen sää

Tämä raportti tehtiin 14 minuuttia sitten, kello 11.00 UTC
Tuuli 30 kn lännestä
Lämpötila 20°C
Kosteus 32%
Ilmanpaine 1014 hPa
Näkyvyys 10 km tai enemmän
ei pilviä alle 1500 m:ssä eikä cumulonimbus-pilviä

METAR: ORMM 261100Z 26030KT CAVOK 20/03 Q1014 NOSIG

Aika: 14:14 (11:14 UTC)

Sääennuste

Tämä raportti tehtiin 19 tuntia ja 14 minuuttia sitten, kello 16.00 UTC
Ennuste voimassa 25. päivästä klo 18 UTC - 26. päivään klo 18 UTC
Tuuli 10 kn lännestä puuskistuen 20 kn:hen
Näkyvyys: 6000 m
Hajanaisia pilviä 4000 ft:n korkeudessa
Pilvistä 10000 ft:n korkeudessa
Ajoittain
25. päivästä klo 18 UTC - 26. päivään klo 00 UTC
Näkyvyys: 4000 m
Muutamia pilviä 3500 ft:n korkeudessa, Cumulonimbus.

TAF: ORMM 251600Z 2518/2618 26010G20KT 6000 SCT040 OVC100 TEMPO 2518/2600 4000 TSSHRA FEW035CB

Säähavainnot ja -ennusteet yli 4000 lentoasemalta (METAR- ja TAF-raportit).

Käytössä olevat sääasemat on merkitty karttaan keltaisilla ja punaisilla pisteillä.

Aseta hiiri pisteen päälle nähdäksesi sääaseman nimen.

Klikkaa sitten nähdäksesi säähavainnot ja -ennusteet.

Kartan vaihtaminen: klikkaa mustalla rastilla varustettuja vihreitä pisteitä, niin voit zoomata sisään; viivalla varustettua vihreää pistettä, niin voit zoomata ulos tai vihreitä nuolia, niin pääset viereisille kartoille.


METAR-TAF: